sensor_id;sensor_type;location;lat;lon;timestamp;temperature;humidity
22629;DHT22;11481;53.694;9.910;2023-08-01T00:01:38;17.80;99.90
22629;DHT22;11481;53.694;9.910;2023-08-01T00:04:04;17.70;99.90
22629;DHT22;11481;53.694;9.910;2023-08-01T00:06:31;17.70;99.90
22629;DHT22;11481;53.694;9.910;2023-08-01T00:08:58;17.70;99.90
22629;DHT22;11481;53.694;9.910;2023-08-01T00:11:24;17.70;99.90
22629;DHT22;11481;53.694;9.910;2023-08-01T00:13:51;17.60;99.90
22629;DHT22;11481;53.694;9.910;2023-08-01T00:16:18;17.50;99.90
22629;DHT22;11481;53.694;9.910;2023-08-01T00:18:44;17.40;99.90
22629;DHT22;11481;53.694;9.910;2023-08-01T00:21:11;17.20;99.90
22629;DHT22;11481;53.694;9.910;2023-08-01T00:23:38;17.20;99.90
22629;DHT22;11481;53.694;9.910;2023-08-01T00:26:05;17.10;99.90
22629;DHT22;11481;53.694;9.910;2023-08-01T00:28:31;17.10;99.90
22629;DHT22;11481;53.694;9.910;2023-08-01T00:31:05;17.10;99.90
22629;DHT22;11481;53.694;9.910;2023-08-01T00:33:33;17.10;99.90
22629;DHT22;11481;53.694;9.910;2023-08-01T00:35:59;17.00;99.90
22629;DHT22;11481;53.694;9.910;2023-08-01T00:38:27;16.90;99.90
22629;DHT22;11481;53.694;9.910;2023-08-01T00:40:53;16.80;99.90
22629;DHT22;11481;53.694;9.910;2023-08-01T00:43:20;16.80;99.90
22629;DHT22;11481;53.694;9.910;2023-08-01T00:45:47;16.80;99.90
22629;DHT22;11481;53.694;9.910;2023-08-01T00:48:13;16.90;99.90
22629;DHT22;11481;53.694;9.910;2023-08-01T00:50:40;16.90;99.90
22629;DHT22;11481;53.694;9.910;2023-08-01T00:53:07;16.90;99.90
22629;DHT22;11481;53.694;9.910;2023-08-01T00:55:34;17.00;99.90
22629;DHT22;11481;53.694;9.910;2023-08-01T00:58:02;17.10;99.90
22629;DHT22;11481;53.694;9.910;2023-08-01T01:00:28;17.10;99.90
22629;DHT22;11481;53.694;9.910;2023-08-01T01:02:56;17.10;99.90
22629;DHT22;11481;53.694;9.910;2023-08-01T01:05:24;17.20;99.90
22629;DHT22;11481;53.694;9.910;2023-08-01T01:07:52;17.20;99.90
22629;DHT22;11481;53.694;9.910;2023-08-01T01:10:19;17.20;99.90
22629;DHT22;11481;53.694;9.910;2023-08-01T01:12:45;17.20;99.90
22629;DHT22;11481;53.694;9.910;2023-08-01T01:15:14;17.20;99.90
22629;DHT22;11481;53.694;9.910;2023-08-01T01:17:40;17.30;99.90
22629;DHT22;11481;53.694;9.910;2023-08-01T01:20:07;17.20;99.90
22629;DHT22;11481;53.694;9.910;2023-08-01T01:22:35;17.20;99.90
22629;DHT22;11481;53.694;9.910;2023-08-01T01:25:04;17.20;99.90
22629;DHT22;11481;53.694;9.910;2023-08-01T01:27:32;17.20;99.90
22629;DHT22;11481;53.694;9.910;2023-08-01T01:30:00;17.20;99.90
22629;DHT22;11481;53.694;9.910;2023-08-01T01:32:28;17.20;99.90
22629;DHT22;11481;53.694;9.910;2023-08-01T01:34:56;17.20;99.90
22629;DHT22;11481;53.694;9.910;2023-08-01T01:37:22;17.20;99.90
22629;DHT22;11481;53.694;9.910;2023-08-01T01:39:49;17.30;99.90
22629;DHT22;11481;53.694;9.910;2023-08-01T01:42:15;17.20;99.90
22629;DHT22;11481;53.694;9.910;2023-08-01T01:44:42;17.20;99.90
22629;DHT22;11481;53.694;9.910;2023-08-01T01:47:09;17.20;99.90
22629;DHT22;11481;53.694;9.910;2023-08-01T01:49:35;17.20;99.90
22629;DHT22;11481;53.694;9.910;2023-08-01T01:52:02;17.20;99.90
22629;DHT22;11481;53.694;9.910;2023-08-01T01:54:29;17.20;99.90
22629;DHT22;11481;53.694;9.910;2023-08-01T01:56:56;17.20;99.90
22629;DHT22;11481;53.694;9.910;2023-08-01T01:59:23;17.20;99.90
22629;DHT22;11481;53.694;9.910;2023-08-01T02:01:49;17.20;99.90
22629;DHT22;11481;53.694;9.910;2023-08-01T02:04:16;17.20;99.90
22629;DHT22;11481;53.694;9.910;2023-08-01T02:06:43;17.20;99.90
22629;DHT22;11481;53.694;9.910;2023-08-01T02:09:09;17.20;99.90
22629;DHT22;11481;53.694;9.910;2023-08-01T02:11:36;17.20;99.90
22629;DHT22;11481;53.694;9.910;2023-08-01T02:14:03;17.30;99.90
22629;DHT22;11481;53.694;9.910;2023-08-01T02:16:29;17.30;99.90
22629;DHT22;11481;53.694;9.910;2023-08-01T02:18:56;17.80;99.90
22629;DHT22;11481;53.694;9.910;2023-08-01T02:21:23;17.40;99.90
22629;DHT22;11481;53.694;9.910;2023-08-01T02:23:49;17.40;99.90
22629;DHT22;11481;53.694;9.910;2023-08-01T02:26:16;17.40;99.90
22629;DHT22;11481;53.694;9.910;2023-08-01T02:28:43;17.30;99.90
22629;DHT22;11481;53.694;9.910;2023-08-01T02:31:10;17.30;99.90
22629;DHT22;11481;53.694;9.910;2023-08-01T02:33:37;17.30;99.90
22629;DHT22;11481;53.694;9.910;2023-08-01T02:36:04;17.40;99.90
22629;DHT22;11481;53.694;9.910;2023-08-01T02:38:31;17.40;99.90
22629;DHT22;11481;53.694;9.910;2023-08-01T02:40:58;17.40;99.90
22629;DHT22;11481;53.694;9.910;2023-08-01T02:43:25;17.30;99.90
22629;DHT22;11481;53.694;9.910;2023-08-01T02:45:52;17.40;99.90
22629;DHT22;11481;53.694;9.910;2023-08-01T02:48:19;17.30;99.90
22629;DHT22;11481;53.694;9.910;2023-08-01T02:50:46;17.30;99.90
22629;DHT22;11481;53.694;9.910;2023-08-01T02:53:13;17.30;99.90
22629;DHT22;11481;53.694;9.910;2023-08-01T02:55:40;17.30;99.90
22629;DHT22;11481;53.694;9.910;2023-08-01T02:58:07;17.40;99.90
22629;DHT22;11481;53.694;9.910;2023-08-01T03:00:37;17.30;99.90
22629;DHT22;11481;53.694;9.910;2023-08-01T03:03:06;17.20;99.90
22629;DHT22;11481;53.694;9.910;2023-08-01T03:05:38;17.20;99.90
22629;DHT22;11481;53.694;9.910;2023-08-01T03:08:05;17.30;99.90
22629;DHT22;11481;53.694;9.910;2023-08-01T03:10:32;17.30;99.90
22629;DHT22;11481;53.694;9.910;2023-08-01T03:13:03;17.30;99.90
22629;DHT22;11481;53.694;9.910;2023-08-01T03:15:30;17.20;99.90
22629;DHT22;11481;53.694;9.910;2023-08-01T03:17:56;17.20;99.90
22629;DHT22;11481;53.694;9.910;2023-08-01T03:20:23;17.30;99.90
22629;DHT22;11481;53.694;9.910;2023-08-01T03:22:50;17.30;99.90
22629;DHT22;11481;53.694;9.910;2023-08-01T03:25:17;17.30;99.90
22629;DHT22;11481;53.694;9.910;2023-08-01T03:27:43;17.30;99.90
22629;DHT22;11481;53.694;9.910;2023-08-01T03:30:10;17.40;99.90
22629;DHT22;11481;53.694;9.910;2023-08-01T03:32:37;17.30;99.90
22629;DHT22;11481;53.694;9.910;2023-08-01T03:35:05;17.40;99.90
22629;DHT22;11481;53.694;9.910;2023-08-01T03:37:31;17.30;99.90
22629;DHT22;11481;53.694;9.910;2023-08-01T03:39:58;17.40;99.90
22629;DHT22;11481;53.694;9.910;2023-08-01T03:42:25;17.30;99.90
22629;DHT22;11481;53.694;9.910;2023-08-01T03:44:51;17.30;99.90
22629;DHT22;11481;53.694;9.910;2023-08-01T03:47:18;17.30;99.90
22629;DHT22;11481;53.694;9.910;2023-08-01T03:49:44;17.30;99.90
22629;DHT22;11481;53.694;9.910;2023-08-01T03:52:11;17.20;99.90
22629;DHT22;11481;53.694;9.910;2023-08-01T03:54:38;17.20;99.90
22629;DHT22;11481;53.694;9.910;2023-08-01T03:57:04;17.20;99.90
22629;DHT22;11481;53.694;9.910;2023-08-01T03:59:31;17.30;99.90
22629;DHT22;11481;53.694;9.910;2023-08-01T04:01:58;17.30;99.90
22629;DHT22;11481;53.694;9.910;2023-08-01T04:04:24;17.30;99.90
22629;DHT22;11481;53.694;9.910;2023-08-01T04:06:51;17.30;99.90
22629;DHT22;11481;53.694;9.910;2023-08-01T04:09:18;17.20;99.90
22629;DHT22;11481;53.694;9.910;2023-08-01T04:11:44;17.30;99.90
22629;DHT22;11481;53.694;9.910;2023-08-01T04:14:11;17.20;99.90
22629;DHT22;11481;53.694;9.910;2023-08-01T04:16:38;17.20;99.90
22629;DHT22;11481;53.694;9.910;2023-08-01T04:19:05;17.20;99.90
22629;DHT22;11481;53.694;9.910;2023-08-01T04:21:32;17.20;99.90
22629;DHT22;11481;53.694;9.910;2023-08-01T04:23:58;17.10;99.90
22629;DHT22;11481;53.694;9.910;2023-08-01T04:26:25;17.20;99.90
22629;DHT22;11481;53.694;9.910;2023-08-01T04:28:51;17.20;99.90
22629;DHT22;11481;53.694;9.910;2023-08-01T04:31:18;17.20;99.90
22629;DHT22;11481;53.694;9.910;2023-08-01T04:33:45;17.20;99.90
22629;DHT22;11481;53.694;9.910;2023-08-01T04:36:12;17.10;99.90
22629;DHT22;11481;53.694;9.910;2023-08-01T04:38:39;17.10;99.90
22629;DHT22;11481;53.694;9.910;2023-08-01T04:41:05;17.10;99.90
22629;DHT22;11481;53.694;9.910;2023-08-01T04:43:32;17.20;99.90
22629;DHT22;11481;53.694;9.910;2023-08-01T04:45:58;17.10;99.90
22629;DHT22;11481;53.694;9.910;2023-08-01T04:48:25;17.10;99.90
22629;DHT22;11481;53.694;9.910;2023-08-01T04:50:52;17.10;99.90
22629;DHT22;11481;53.694;9.910;2023-08-01T04:53:18;17.10;99.90
22629;DHT22;11481;53.694;9.910;2023-08-01T04:55:45;17.10;99.90
22629;DHT22;11481;53.694;9.910;2023-08-01T04:58:11;17.00;99.90
22629;DHT22;11481;53.694;9.910;2023-08-01T05:00:40;17.00;99.90
22629;DHT22;11481;53.694;9.910;2023-08-01T05:03:07;17.00;99.90
22629;DHT22;11481;53.694;9.910;2023-08-01T05:05:34;16.90;99.90
22629;DHT22;11481;53.694;9.910;2023-08-01T05:08:01;16.90;99.90
22629;DHT22;11481;53.694;9.910;2023-08-01T05:10:27;17.00;99.90
22629;DHT22;11481;53.694;9.910;2023-08-01T05:12:54;17.00;99.90
22629;DHT22;11481;53.694;9.910;2023-08-01T05:15:21;17.00;99.90
22629;DHT22;11481;53.694;9.910;2023-08-01T05:17:47;17.10;99.90
22629;DHT22;11481;53.694;9.910;2023-08-01T05:20:14;17.10;99.90
22629;DHT22;11481;53.694;9.910;2023-08-01T05:22:41;17.10;99.90
22629;DHT22;11481;53.694;9.910;2023-08-01T05:25:08;17.10;99.90
22629;DHT22;11481;53.694;9.910;2023-08-01T05:27:34;17.20;99.90
22629;DHT22;11481;53.694;9.910;2023-08-01T05:30:01;17.10;99.90
22629;DHT22;11481;53.694;9.910;2023-08-01T05:32:28;17.10;99.90
22629;DHT22;11481;53.694;9.910;2023-08-01T05:34:55;17.00;99.90
22629;DHT22;11481;53.694;9.910;2023-08-01T05:37:21;17.10;99.90
22629;DHT22;11481;53.694;9.910;2023-08-01T05:39:48;16.90;99.90
22629;DHT22;11481;53.694;9.910;2023-08-01T05:42:15;17.00;99.90
22629;DHT22;11481;53.694;9.910;2023-08-01T05:44:41;16.90;99.90
22629;DHT22;11481;53.694;9.910;2023-08-01T05:47:08;16.90;99.90
22629;DHT22;11481;53.694;9.910;2023-08-01T05:49:34;17.00;99.90
22629;DHT22;11481;53.694;9.910;2023-08-01T05:52:01;16.90;99.90
22629;DHT22;11481;53.694;9.910;2023-08-01T05:54:28;16.90;99.90
22629;DHT22;11481;53.694;9.910;2023-08-01T05:56:54;16.90;99.90
22629;DHT22;11481;53.694;9.910;2023-08-01T05:59:21;17.00;99.90
22629;DHT22;11481;53.694;9.910;2023-08-01T06:01:48;16.90;99.90
22629;DHT22;11481;53.694;9.910;2023-08-01T06:04:15;16.80;99.90
22629;DHT22;11481;53.694;9.910;2023-08-01T06:06:42;16.90;99.90
22629;DHT22;11481;53.694;9.910;2023-08-01T06:09:09;17.00;99.90
22629;DHT22;11481;53.694;9.910;2023-08-01T06:11:36;17.00;99.90
22629;DHT22;11481;53.694;9.910;2023-08-01T06:14:02;17.10;99.90
22629;DHT22;11481;53.694;9.910;2023-08-01T06:16:29;17.10;99.90
22629;DHT22;11481;53.694;9.910;2023-08-01T06:18:56;17.10;99.90
22629;DHT22;11481;53.694;9.910;2023-08-01T06:21:25;17.10;99.90
22629;DHT22;11481;53.694;9.910;2023-08-01T06:23:52;17.10;99.90
22629;DHT22;11481;53.694;9.910;2023-08-01T06:26:18;17.20;99.90
22629;DHT22;11481;53.694;9.910;2023-08-01T06:28:45;17.30;99.90
22629;DHT22;11481;53.694;9.910;2023-08-01T06:31:12;17.30;99.90
22629;DHT22;11481;53.694;9.910;2023-08-01T06:33:39;17.40;99.90
22629;DHT22;11481;53.694;9.910;2023-08-01T06:36:06;17.20;99.90
22629;DHT22;11481;53.694;9.910;2023-08-01T06:38:33;17.30;99.90
22629;DHT22;11481;53.694;9.910;2023-08-01T06:41:00;17.20;99.90
22629;DHT22;11481;53.694;9.910;2023-08-01T06:43:27;17.10;99.90
22629;DHT22;11481;53.694;9.910;2023-08-01T06:45:53;17.10;99.90
22629;DHT22;11481;53.694;9.910;2023-08-01T06:48:20;17.30;99.90
22629;DHT22;11481;53.694;9.910;2023-08-01T06:50:47;17.10;99.90
22629;DHT22;11481;53.694;9.910;2023-08-01T06:53:13;17.10;99.90
22629;DHT22;11481;53.694;9.910;2023-08-01T06:55:40;17.10;99.90
22629;DHT22;11481;53.694;9.910;2023-08-01T06:58:07;17.10;99.90
22629;DHT22;11481;53.694;9.910;2023-08-01T07:00:33;17.00;99.90
22629;DHT22;11481;53.694;9.910;2023-08-01T07:03:00;17.30;99.90
22629;DHT22;11481;53.694;9.910;2023-08-01T07:05:27;17.30;99.90
22629;DHT22;11481;53.694;9.910;2023-08-01T07:07:53;17.30;99.90
22629;DHT22;11481;53.694;9.910;2023-08-01T07:10:20;17.40;99.90
22629;DHT22;11481;53.694;9.910;2023-08-01T07:12:47;17.30;99.90
22629;DHT22;11481;53.694;9.910;2023-08-01T07:15:14;17.40;99.90
22629;DHT22;11481;53.694;9.910;2023-08-01T07:17:41;17.40;99.90
22629;DHT22;11481;53.694;9.910;2023-08-01T07:20:08;17.20;99.90
22629;DHT22;11481;53.694;9.910;2023-08-01T07:22:35;17.20;99.90
22629;DHT22;11481;53.694;9.910;2023-08-01T07:25:02;17.10;99.90
22629;DHT22;11481;53.694;9.910;2023-08-01T07:27:29;17.10;99.90
22629;DHT22;11481;53.694;9.910;2023-08-01T07:29:56;17.20;99.90
22629;DHT22;11481;53.694;9.910;2023-08-01T07:32:24;17.30;99.90
22629;DHT22;11481;53.694;9.910;2023-08-01T07:34:51;17.30;99.90
22629;DHT22;11481;53.694;9.910;2023-08-01T07:37:17;17.40;99.90
22629;DHT22;11481;53.694;9.910;2023-08-01T07:39:44;17.50;99.90
22629;DHT22;11481;53.694;9.910;2023-08-01T07:42:11;17.60;99.90
22629;DHT22;11481;53.694;9.910;2023-08-01T07:44:37;17.50;99.90
22629;DHT22;11481;53.694;9.910;2023-08-01T07:47:04;17.40;99.90
22629;DHT22;11481;53.694;9.910;2023-08-01T07:49:31;17.60;99.90
22629;DHT22;11481;53.694;9.910;2023-08-01T07:51:58;17.70;99.90
22629;DHT22;11481;53.694;9.910;2023-08-01T07:54:24;17.70;99.90
22629;DHT22;11481;53.694;9.910;2023-08-01T07:56:51;18.00;99.90
22629;DHT22;11481;53.694;9.910;2023-08-01T07:59:18;18.10;99.90
22629;DHT22;11481;53.694;9.910;2023-08-01T08:01:45;18.10;99.90
22629;DHT22;11481;53.694;9.910;2023-08-01T08:04:13;18.10;99.90
22629;DHT22;11481;53.694;9.910;2023-08-01T08:06:41;18.00;99.90
22629;DHT22;11481;53.694;9.910;2023-08-01T08:09:08;18.00;99.90
22629;DHT22;11481;53.694;9.910;2023-08-01T08:11:34;18.10;99.90
22629;DHT22;11481;53.694;9.910;2023-08-01T08:14:01;18.20;99.90
22629;DHT22;11481;53.694;9.910;2023-08-01T08:16:28;18.40;99.90
22629;DHT22;11481;53.694;9.910;2023-08-01T08:18:55;18.20;99.90
22629;DHT22;11481;53.694;9.910;2023-08-01T08:21:21;18.00;99.90
22629;DHT22;11481;53.694;9.910;2023-08-01T08:23:48;18.10;99.90
22629;DHT22;11481;53.694;9.910;2023-08-01T08:26:15;18.20;99.90
22629;DHT22;11481;53.694;9.910;2023-08-01T08:28:41;18.30;99.90
22629;DHT22;11481;53.694;9.910;2023-08-01T08:31:09;18.30;99.90
22629;DHT22;11481;53.694;9.910;2023-08-01T08:33:37;18.50;99.90
22629;DHT22;11481;53.694;9.910;2023-08-01T08:36:05;18.60;99.90
22629;DHT22;11481;53.694;9.910;2023-08-01T08:38:31;18.70;99.90
22629;DHT22;11481;53.694;9.910;2023-08-01T08:43:38;18.90;99.90
22629;DHT22;11481;53.694;9.910;2023-08-01T08:46:06;18.90;99.90
22629;DHT22;11481;53.694;9.910;2023-08-01T08:48:35;19.00;99.90
22629;DHT22;11481;53.694;9.910;2023-08-01T08:51:04;18.80;99.90
22629;DHT22;11481;53.694;9.910;2023-08-01T08:53:33;18.70;99.90
22629;DHT22;11481;53.694;9.910;2023-08-01T08:56:02;18.90;99.90
22629;DHT22;11481;53.694;9.910;2023-08-01T08:58:31;19.00;99.90
22629;DHT22;11481;53.694;9.910;2023-08-01T09:01:01;19.10;99.90
22629;DHT22;11481;53.694;9.910;2023-08-01T09:03:28;18.90;99.90
22629;DHT22;11481;53.694;9.910;2023-08-01T09:06:12;18.70;99.90
22629;DHT22;11481;53.694;9.910;2023-08-01T09:08:47;18.50;99.90
22629;DHT22;11481;53.694;9.910;2023-08-01T09:11:16;18.30;99.90
22629;DHT22;11481;53.694;9.910;2023-08-01T09:13:43;18.10;99.90
22629;DHT22;11481;53.694;9.910;2023-08-01T09:16:10;18.00;99.90
22629;DHT22;11481;53.694;9.910;2023-08-01T09:18:47;17.90;99.90
22629;DHT22;11481;53.694;9.910;2023-08-01T09:21:14;17.80;99.90
22629;DHT22;11481;53.694;9.910;2023-08-01T09:23:40;17.60;99.90
22629;DHT22;11481;53.694;9.910;2023-08-01T09:26:18;17.60;99.90
22629;DHT22;11481;53.694;9.910;2023-08-01T09:28:56;17.60;99.90
22629;DHT22;11481;53.694;9.910;2023-08-01T09:31:27;17.60;99.90
22629;DHT22;11481;53.694;9.910;2023-08-01T09:33:57;17.60;99.90
22629;DHT22;11481;53.694;9.910;2023-08-01T09:36:25;17.60;99.90
22629;DHT22;11481;53.694;9.910;2023-08-01T09:38:58;17.80;99.90
22629;DHT22;11481;53.694;9.910;2023-08-01T09:41:26;18.00;99.90
22629;DHT22;11481;53.694;9.910;2023-08-01T09:43:54;18.30;99.90
22629;DHT22;11481;53.694;9.910;2023-08-01T09:46:21;18.30;99.90
22629;DHT22;11481;53.694;9.910;2023-08-01T09:48:48;18.50;99.90
22629;DHT22;11481;53.694;9.910;2023-08-01T09:51:17;18.70;99.90
22629;DHT22;11481;53.694;9.910;2023-08-01T09:53:49;18.80;99.90
22629;DHT22;11481;53.694;9.910;2023-08-01T09:56:21;19.00;99.90
22629;DHT22;11481;53.694;9.910;2023-08-01T09:58:50;18.90;99.90
22629;DHT22;11481;53.694;9.910;2023-08-01T10:01:19;18.80;99.90
22629;DHT22;11481;53.694;9.910;2023-08-01T10:03:51;19.10;99.90
22629;DHT22;11481;53.694;9.910;2023-08-01T10:06:23;19.30;99.90
22629;DHT22;11481;53.694;9.910;2023-08-01T10:08:52;19.20;99.90
22629;DHT22;11481;53.694;9.910;2023-08-01T10:11:20;19.50;99.90
22629;DHT22;11481;53.694;9.910;2023-08-01T10:13:49;19.30;99.90
22629;DHT22;11481;53.694;9.910;2023-08-01T10:16:16;19.60;99.90
22629;DHT22;11481;53.694;9.910;2023-08-01T10:18:44;19.10;99.90
22629;DHT22;11481;53.694;9.910;2023-08-01T10:21:15;19.10;99.90
22629;DHT22;11481;53.694;9.910;2023-08-01T10:23:44;19.00;99.90
22629;DHT22;11481;53.694;9.910;2023-08-01T10:26:11;19.20;99.90
22629;DHT22;11481;53.694;9.910;2023-08-01T10:28:40;19.50;99.90
22629;DHT22;11481;53.694;9.910;2023-08-01T10:31:12;19.70;99.90
22629;DHT22;11481;53.694;9.910;2023-08-01T10:33:41;19.90;99.90
22629;DHT22;11481;53.694;9.910;2023-08-01T10:36:18;20.00;99.90
22629;DHT22;11481;53.694;9.910;2023-08-01T10:38:51;19.80;99.90
22629;DHT22;11481;53.694;9.910;2023-08-01T10:41:30;19.80;99.90
22629;DHT22;11481;53.694;9.910;2023-08-01T10:44:08;19.60;99.90
22629;DHT22;11481;53.694;9.910;2023-08-01T10:46:50;19.40;99.90
22629;DHT22;11481;53.694;9.910;2023-08-01T10:49:17;19.10;99.90
22629;DHT22;11481;53.694;9.910;2023-08-01T10:51:45;18.50;99.90
22629;DHT22;11481;53.694;9.910;2023-08-01T10:54:25;17.90;99.90
22629;DHT22;11481;53.694;9.910;2023-08-01T10:56:55;17.70;99.90
22629;DHT22;11481;53.694;9.910;2023-08-01T10:59:22;17.60;99.90
22629;DHT22;11481;53.694;9.910;2023-08-01T11:01:52;17.40;99.90
22629;DHT22;11481;53.694;9.910;2023-08-01T11:04:21;17.20;99.90
22629;DHT22;11481;53.694;9.910;2023-08-01T11:06:49;17.10;99.90
22629;DHT22;11481;53.694;9.910;2023-08-01T11:09:22;17.30;99.90
22629;DHT22;11481;53.694;9.910;2023-08-01T11:11:55;17.40;99.90
22629;DHT22;11481;53.694;9.910;2023-08-01T11:14:26;17.30;99.90
22629;DHT22;11481;53.694;9.910;2023-08-01T11:16:56;17.10;99.90
22629;DHT22;11481;53.694;9.910;2023-08-01T11:19:28;17.20;99.90
22629;DHT22;11481;53.694;9.910;2023-08-01T11:21:57;17.10;99.90
22629;DHT22;11481;53.694;9.910;2023-08-01T11:24:26;17.00;99.90
22629;DHT22;11481;53.694;9.910;2023-08-01T11:26:53;16.80;99.90
22629;DHT22;11481;53.694;9.910;2023-08-01T11:29:21;16.80;99.90
22629;DHT22;11481;53.694;9.910;2023-08-01T11:31:56;16.50;99.90
22629;DHT22;11481;53.694;9.910;2023-08-01T11:34:24;16.10;99.90
22629;DHT22;11481;53.694;9.910;2023-08-01T11:36:51;16.10;99.90
22629;DHT22;11481;53.694;9.910;2023-08-01T11:39:20;16.10;99.90
22629;DHT22;11481;53.694;9.910;2023-08-01T11:41:48;16.30;99.90
22629;DHT22;11481;53.694;9.910;2023-08-01T11:44:15;16.30;99.90
22629;DHT22;11481;53.694;9.910;2023-08-01T11:46:42;16.40;99.90
22629;DHT22;11481;53.694;9.910;2023-08-01T11:49:14;16.60;99.90
22629;DHT22;11481;53.694;9.910;2023-08-01T11:51:43;16.80;99.90
22629;DHT22;11481;53.694;9.910;2023-08-01T11:54:10;16.90;99.90
22629;DHT22;11481;53.694;9.910;2023-08-01T11:56:41;17.10;99.90
22629;DHT22;11481;53.694;9.910;2023-08-01T11:59:12;17.30;99.90
22629;DHT22;11481;53.694;9.910;2023-08-01T12:01:40;17.50;99.90
22629;DHT22;11481;53.694;9.910;2023-08-01T12:04:07;17.70;99.90
22629;DHT22;11481;53.694;9.910;2023-08-01T12:06:34;17.80;99.90
22629;DHT22;11481;53.694;9.910;2023-08-01T12:09:12;18.10;99.90
22629;DHT22;11481;53.694;9.910;2023-08-01T12:11:40;18.10;99.90
22629;DHT22;11481;53.694;9.910;2023-08-01T12:16:42;18.50;99.90
22629;DHT22;11481;53.694;9.910;2023-08-01T12:19:20;18.60;99.90
22629;DHT22;11481;53.694;9.910;2023-08-01T12:21:47;18.50;99.90
22629;DHT22;11481;53.694;9.910;2023-08-01T12:24:15;18.80;99.90
22629;DHT22;11481;53.694;9.910;2023-08-01T12:26:41;18.70;99.90
22629;DHT22;11481;53.694;9.910;2023-08-01T12:29:08;18.50;99.90
22629;DHT22;11481;53.694;9.910;2023-08-01T12:31:36;18.30;99.90
22629;DHT22;11481;53.694;9.910;2023-08-01T12:34:02;18.10;99.90
22629;DHT22;11481;53.694;9.910;2023-08-01T12:36:29;18.00;99.90
22629;DHT22;11481;53.694;9.910;2023-08-01T12:38:58;18.00;99.90
22629;DHT22;11481;53.694;9.910;2023-08-01T12:41:25;17.80;99.90
22629;DHT22;11481;53.694;9.910;2023-08-01T12:43:52;17.80;99.90
22629;DHT22;11481;53.694;9.910;2023-08-01T12:46:19;17.90;99.90
22629;DHT22;11481;53.694;9.910;2023-08-01T12:48:46;17.80;99.90
22629;DHT22;11481;53.694;9.910;2023-08-01T12:51:13;17.60;99.90
22629;DHT22;11481;53.694;9.910;2023-08-01T12:53:41;17.60;99.90
22629;DHT22;11481;53.694;9.910;2023-08-01T12:56:08;17.50;99.90
22629;DHT22;11481;53.694;9.910;2023-08-01T12:58:36;17.40;99.90
22629;DHT22;11481;53.694;9.910;2023-08-01T13:01:03;17.50;99.90
22629;DHT22;11481;53.694;9.910;2023-08-01T13:03:31;17.40;99.90
22629;DHT22;11481;53.694;9.910;2023-08-01T13:05:59;17.30;99.90
22629;DHT22;11481;53.694;9.910;2023-08-01T13:08:26;17.40;99.90
22629;DHT22;11481;53.694;9.910;2023-08-01T13:10:52;17.50;99.90
22629;DHT22;11481;53.694;9.910;2023-08-01T13:13:19;17.30;99.90
22629;DHT22;11481;53.694;9.910;2023-08-01T13:15:46;17.30;99.90
22629;DHT22;11481;53.694;9.910;2023-08-01T13:18:13;17.40;99.90
22629;DHT22;11481;53.694;9.910;2023-08-01T13:20:40;17.50;99.90
22629;DHT22;11481;53.694;9.910;2023-08-01T13:23:07;17.60;99.90
22629;DHT22;11481;53.694;9.910;2023-08-01T13:25:36;17.80;99.90
22629;DHT22;11481;53.694;9.910;2023-08-01T13:28:02;17.70;99.90
22629;DHT22;11481;53.694;9.910;2023-08-01T13:30:30;17.80;99.90
22629;DHT22;11481;53.694;9.910;2023-08-01T13:32:56;17.80;99.90
22629;DHT22;11481;53.694;9.910;2023-08-01T13:35:23;17.70;99.90
22629;DHT22;11481;53.694;9.910;2023-08-01T13:37:50;17.90;99.90
22629;DHT22;11481;53.694;9.910;2023-08-01T13:40:16;17.90;99.90
22629;DHT22;11481;53.694;9.910;2023-08-01T13:42:45;17.80;99.90
22629;DHT22;11481;53.694;9.910;2023-08-01T13:45:11;17.70;99.90
22629;DHT22;11481;53.694;9.910;2023-08-01T13:47:38;17.80;99.90
22629;DHT22;11481;53.694;9.910;2023-08-01T13:50:05;17.80;99.90
22629;DHT22;11481;53.694;9.910;2023-08-01T13:52:32;17.80;99.90
22629;DHT22;11481;53.694;9.910;2023-08-01T13:54:58;17.70;99.90
22629;DHT22;11481;53.694;9.910;2023-08-01T13:57:26;17.60;99.90
22629;DHT22;11481;53.694;9.910;2023-08-01T13:59:52;17.60;99.90
22629;DHT22;11481;53.694;9.910;2023-08-01T14:02:35;17.40;99.90
22629;DHT22;11481;53.694;9.910;2023-08-01T14:05:03;17.50;99.90
22629;DHT22;11481;53.694;9.910;2023-08-01T14:07:29;17.40;99.90
22629;DHT22;11481;53.694;9.910;2023-08-01T14:09:56;18.30;99.90
22629;DHT22;11481;53.694;9.910;2023-08-01T14:12:23;18.10;99.90
22629;DHT22;11481;53.694;9.910;2023-08-01T14:14:51;17.60;99.90
22629;DHT22;11481;53.694;9.910;2023-08-01T14:17:17;17.60;99.90
22629;DHT22;11481;53.694;9.910;2023-08-01T14:19:44;17.60;99.90
22629;DHT22;11481;53.694;9.910;2023-08-01T14:22:11;17.70;99.90
22629;DHT22;11481;53.694;9.910;2023-08-01T14:24:37;17.90;99.90
22629;DHT22;11481;53.694;9.910;2023-08-01T14:27:04;18.20;99.90
22629;DHT22;11481;53.694;9.910;2023-08-01T14:29:31;18.40;99.90
22629;DHT22;11481;53.694;9.910;2023-08-01T14:31:57;18.50;99.90
22629;DHT22;11481;53.694;9.910;2023-08-01T14:34:24;18.70;99.90
22629;DHT22;11481;53.694;9.910;2023-08-01T14:36:51;18.80;99.90
22629;DHT22;11481;53.694;9.910;2023-08-01T14:39:17;19.00;99.90
22629;DHT22;11481;53.694;9.910;2023-08-01T14:41:49;18.80;99.90
22629;DHT22;11481;53.694;9.910;2023-08-01T14:44:19;18.70;99.90
22629;DHT22;11481;53.694;9.910;2023-08-01T14:46:46;18.60;99.90
22629;DHT22;11481;53.694;9.910;2023-08-01T14:49:13;18.50;99.90
22629;DHT22;11481;53.694;9.910;2023-08-01T14:51:39;18.40;99.90
22629;DHT22;11481;53.694;9.910;2023-08-01T14:54:06;18.50;99.90
22629;DHT22;11481;53.694;9.910;2023-08-01T14:56:33;18.70;99.90
22629;DHT22;11481;53.694;9.910;2023-08-01T14:58:59;18.80;99.90
22629;DHT22;11481;53.694;9.910;2023-08-01T15:01:26;18.90;99.90
22629;DHT22;11481;53.694;9.910;2023-08-01T15:03:53;18.90;99.90
22629;DHT22;11481;53.694;9.910;2023-08-01T15:06:20;18.90;99.90
22629;DHT22;11481;53.694;9.910;2023-08-01T15:08:47;19.00;99.90
22629;DHT22;11481;53.694;9.910;2023-08-01T15:11:13;19.00;99.90
22629;DHT22;11481;53.694;9.910;2023-08-01T15:13:40;18.90;99.90
22629;DHT22;11481;53.694;9.910;2023-08-01T15:16:10;18.60;99.90
22629;DHT22;11481;53.694;9.910;2023-08-01T15:18:38;18.40;99.90
22629;DHT22;11481;53.694;9.910;2023-08-01T15:21:05;18.20;99.90
22629;DHT22;11481;53.694;9.910;2023-08-01T15:23:31;17.80;99.90
22629;DHT22;11481;53.694;9.910;2023-08-01T15:25:58;17.80;99.90
22629;DHT22;11481;53.694;9.910;2023-08-01T15:28:26;17.70;99.90
22629;DHT22;11481;53.694;9.910;2023-08-01T15:31:07;17.60;99.90
22629;DHT22;11481;53.694;9.910;2023-08-01T15:33:36;17.50;99.90
22629;DHT22;11481;53.694;9.910;2023-08-01T15:36:07;17.50;99.90
22629;DHT22;11481;53.694;9.910;2023-08-01T15:38:36;17.50;99.90